createdAt,value
2024-01-08T00:02:44.218Z,101328.55
2024-01-08T00:07:47.178Z,101335.80
2024-01-08T00:12:49.927Z,101342.02
2024-01-08T00:17:53.082Z,101342.56
2024-01-08T00:22:56.352Z,101345.88
2024-01-08T00:27:59.252Z,101348.08
2024-01-08T00:33:02.078Z,101348.11
2024-01-08T00:38:05.053Z,101345.46
2024-01-08T00:43:07.682Z,101347.73
2024-01-08T00:48:10.773Z,101352.48
2024-01-08T00:53:13.513Z,101364.02
2024-01-08T00:58:17.111Z,101363.93
2024-01-08T01:03:20.758Z,101366.86
2024-01-08T01:08:23.679Z,101364.67
2024-01-08T01:13:27.093Z,101373.09
2024-01-08T01:18:30.048Z,101378.12
2024-01-08T01:23:33.631Z,101387.57
2024-01-08T01:28:36.424Z,101391.14
2024-01-08T01:33:39.584Z,101388.17
2024-01-08T01:38:42.464Z,101397.72
2024-01-08T01:43:45.113Z,101399.23
2024-01-08T01:48:48.057Z,101404.11
2024-01-08T01:53:51.047Z,101409.17
2024-01-08T01:58:54.036Z,101412.05
2024-01-08T02:03:57.193Z,101414.56
2024-01-08T02:08:59.987Z,101422.94
2024-01-08T02:14:02.750Z,101429.33
2024-01-08T02:19:06.272Z,101427.84
2024-01-08T02:24:08.971Z,101436.77
2024-01-08T02:29:11.742Z,101440.22
2024-01-08T02:34:14.501Z,101445.30
2024-01-08T02:39:17.216Z,101449.11
2024-01-08T02:44:20.054Z,101460.91
2024-01-08T02:49:22.966Z,101466.82
2024-01-08T02:54:26.415Z,101463.40
2024-01-08T02:59:29.220Z,101461.43
2024-01-08T03:04:31.889Z,101454.58
2024-01-08T03:09:34.625Z,101476.25
2024-01-08T03:14:37.298Z,101479.17
2024-01-08T03:19:40.070Z,101482.73
2024-01-08T03:24:42.769Z,101491.64
2024-01-08T03:29:45.446Z,101497.71
2024-01-08T03:34:48.124Z,101502.84
2024-01-08T03:39:50.835Z,101502.20
2024-01-08T03:44:53.620Z,101503.06
2024-01-08T03:49:57.168Z,101508.07
2024-01-08T03:54:59.903Z,101506.65
2024-01-08T04:00:02.618Z,101509.54
2024-01-08T04:05:06.536Z,101512.66
2024-01-08T04:10:09.577Z,101522.96
2024-01-08T04:15:12.365Z,101523.95
2024-01-08T04:20:15.175Z,101528.34
2024-01-08T04:25:18.253Z,101526.02
2024-01-08T04:30:21.087Z,101529.73
2024-01-08T04:35:23.915Z,101529.16
2024-01-08T04:40:26.554Z,101532.44
2024-01-08T04:45:30.649Z,101525.95
2024-01-08T04:50:33.350Z,101526.52
2024-01-08T04:55:37.453Z,101530.31
2024-01-08T05:00:40.329Z,101538.05
2024-01-08T05:05:43.790Z,101544.98
2024-01-08T05:10:46.647Z,101541.34
2024-01-08T05:15:49.305Z,101545.15
2024-01-08T05:20:51.954Z,101554.23
2024-01-08T05:25:54.774Z,101570.52
2024-01-08T05:30:57.876Z,101574.23
2024-01-08T05:36:01.708Z,101586.39
2024-01-08T05:41:04.588Z,101585.80
2024-01-08T05:46:08.571Z,101577.95
2024-01-08T05:51:11.652Z,101587.21
2024-01-08T05:56:14.401Z,101588.46
2024-01-08T06:01:18.660Z,101592.81
2024-01-08T06:06:22.034Z,101593.44
2024-01-08T06:11:25.436Z,101593.50
2024-01-08T06:16:32.261Z,101590.89
2024-01-08T06:21:34.947Z,101612.30
2024-01-08T06:26:37.761Z,101635.89
2024-01-08T06:31:40.807Z,101640.67
2024-01-08T06:36:43.538Z,101654.50
2024-01-08T06:41:46.354Z,101670.23
2024-01-08T06:46:49.017Z,101666.13
2024-01-08T06:51:51.616Z,101672.60
2024-01-08T06:56:54.293Z,101682.11
2024-01-08T07:01:57.065Z,101686.15
2024-01-08T07:07:00.616Z,101681.17
2024-01-08T07:12:05.097Z,101689.84
2024-01-08T07:17:07.850Z,101695.66
2024-01-08T07:22:10.612Z,101702.10
2024-01-08T07:27:13.502Z,101721.25
2024-01-08T07:32:16.466Z,101724.36
2024-01-08T07:37:19.202Z,101740.58
2024-01-08T07:42:22.182Z,101750.14
2024-01-08T07:47:25.209Z,101743.33
2024-01-08T07:52:37.942Z,101734.70
2024-01-08T07:57:41.784Z,101746.80
2024-01-08T08:02:45.051Z,101760.31
2024-01-08T08:07:48.256Z,101771.11
2024-01-08T08:12:52.988Z,101780.70
2024-01-08T08:25:02.498Z,101792.70
2024-01-08T08:30:07.953Z,101792.20
2024-01-08T08:35:11.577Z,101782.11
2024-01-08T08:40:14.889Z,101791.89
2024-01-08T08:45:19.223Z,101797.64
2024-01-08T08:50:22.300Z,101808.77
2024-01-08T08:55:24.953Z,101820.50
2024-01-08T09:00:27.700Z,101819.77
2024-01-08T09:05:36.875Z,101825.77
2024-01-08T09:10:43.167Z,101830.52
2024-01-08T09:15:46.036Z,101829.77
2024-01-08T09:20:48.813Z,101826.88
2024-01-08T09:25:51.658Z,101828.40
2024-01-08T09:30:55.610Z,101830.30
2024-01-08T09:35:59.008Z,101815.13
2024-01-08T09:41:07.910Z,101810.30
2024-01-08T09:46:20.022Z,101824.61
2024-01-08T09:51:23.695Z,101819.87
2024-01-08T09:56:27.905Z,101819.30
2024-01-08T10:01:30.966Z,101816.11
2024-01-08T10:06:34.097Z,101815.46
2024-01-08T10:11:37.488Z,101823.23
2024-01-08T10:16:54.820Z,101822.02
2024-01-08T10:22:15.364Z,101832.97
2024-01-08T10:27:18.615Z,101835.08
2024-01-08T10:32:24.401Z,101838.15
2024-01-08T10:37:28.377Z,101837.96
2024-01-08T10:42:31.474Z,101842.03
2024-01-08T10:47:45.580Z,101840.40
2024-01-08T10:52:57.831Z,101840.80
2024-01-08T10:58:05.891Z,101834.24
2024-01-08T11:03:08.932Z,101828.60
2024-01-08T11:08:13.837Z,101837.30
2024-01-08T11:13:17.791Z,101843.63
2024-01-08T11:18:31.952Z,101837.03
2024-01-08T11:23:41.044Z,101837.85
2024-01-08T11:29:04.620Z,101833.95
2024-01-08T11:34:32.171Z,101840.56
2024-01-08T11:39:41.085Z,101845.63
2024-01-08T11:44:44.453Z,101848.55
2024-01-08T11:50:07.930Z,101865.92
2024-01-08T11:55:11.405Z,101872.30
2024-01-08T12:00:16.296Z,101879.16
2024-01-08T12:05:19.615Z,101885.18
2024-01-08T12:10:22.792Z,101875.05
2024-01-08T12:15:28.920Z,101870.31
2024-01-08T12:20:31.914Z,101869.20
2024-01-08T12:25:35.409Z,101869.47
2024-01-08T12:30:40.136Z,101871.10
2024-01-08T12:35:43.530Z,101875.92
2024-01-08T12:40:46.545Z,101875.83
2024-01-08T12:45:51.290Z,101873.80
2024-01-08T12:50:54.574Z,101876.96
2024-01-08T12:56:00.414Z,101883.49
2024-01-08T13:01:03.455Z,101888.53
2024-01-08T13:06:08.512Z,101891.45
2024-01-08T13:11:13.109Z,101900.73
2024-01-08T13:16:16.173Z,101906.80
2024-01-08T13:21:19.069Z,101912.27
2024-01-08T13:26:22.074Z,101910.23
2024-01-08T13:31:25.084Z,101904.80
2024-01-08T13:36:27.967Z,101908.77
2024-01-08T13:41:32.318Z,101909.04
2024-01-08T13:46:35.705Z,101911.27
2024-01-08T13:51:38.580Z,101909.39
2024-01-08T13:56:42.740Z,101908.30
2024-01-08T14:01:45.714Z,101920.31
2024-01-08T14:06:48.430Z,101925.90
2024-01-08T14:11:51.267Z,101945.22
2024-01-08T14:16:54.084Z,101943.59
2024-01-08T14:21:57.017Z,101941.51
2024-01-08T14:26:59.785Z,101941.67
2024-01-08T14:32:02.879Z,101946.40
2024-01-08T14:37:05.928Z,101955.89
2024-01-08T14:42:09.088Z,101963.01
2024-01-08T14:47:11.928Z,101964.70
2024-01-08T14:52:15.071Z,101964.83
2024-01-08T14:57:17.993Z,101963.02
2024-01-08T15:02:21.270Z,101967.71
2024-01-08T15:07:24.391Z,101960.98
2024-01-08T15:12:27.411Z,101965.54
2024-01-08T15:17:30.504Z,101982.64
2024-01-08T15:22:33.661Z,101976.45
2024-01-08T15:27:37.423Z,101970.75
2024-01-08T15:32:42.377Z,101974.38
2024-01-08T15:37:45.242Z,101983.30
2024-01-08T15:42:47.928Z,101989.41
2024-01-08T15:47:51.043Z,101993.31
2024-01-08T15:52:53.877Z,102008.70
2024-01-08T15:57:56.618Z,102012.23
2024-01-08T16:02:59.594Z,102013.59
2024-01-08T16:08:04.031Z,102017.40
2024-01-08T16:13:06.786Z,102027.12
2024-01-08T16:18:09.661Z,102040.24
2024-01-08T16:23:12.423Z,102038.86
2024-01-08T16:28:15.354Z,102037.12
2024-01-08T16:33:18.320Z,102042.52
2024-01-08T16:38:21.441Z,102045.13
2024-01-08T16:43:25.258Z,102053.96
2024-01-08T16:48:29.363Z,102059.77
2024-01-08T16:53:33.271Z,102062.60
2024-01-08T16:58:37.012Z,102058.84
2024-01-08T17:03:42.436Z,102074.79
2024-01-08T17:08:45.503Z,102084.71
2024-01-08T17:13:48.794Z,102084.54
2024-01-08T17:18:51.826Z,102077.90
2024-01-08T17:23:54.726Z,102081.91
2024-01-08T17:28:58.842Z,102083.70
2024-01-08T17:34:01.708Z,102082.52
2024-01-08T17:39:04.721Z,102078.20
2024-01-08T17:44:08.630Z,102082.52
2024-01-08T17:49:12.502Z,102086.00
2024-01-08T17:54:15.266Z,102086.73
2024-01-08T17:59:18.262Z,102085.98
2024-01-08T18:04:21.223Z,102083.27
2024-01-08T18:09:24.399Z,102085.36
2024-01-08T18:14:29.117Z,102078.88
2024-01-08T18:19:32.273Z,102074.25
2024-01-08T18:24:37.298Z,102085.46
2024-01-08T18:29:40.117Z,102088.16
2024-01-08T18:34:42.892Z,102091.36
2024-01-08T18:39:45.604Z,102100.46
2024-01-08T18:44:48.366Z,102100.98
2024-01-08T18:49:51.237Z,102097.86
2024-01-08T18:54:54.361Z,102100.36
2024-01-08T18:59:57.913Z,102102.11
2024-01-08T19:05:01.407Z,102107.83
2024-01-08T19:10:19.006Z,102113.79
2024-01-08T19:15:21.756Z,102111.50
2024-01-08T19:20:27.102Z,102112.80
2024-01-08T19:25:42.252Z,102109.59
2024-01-08T19:30:46.114Z,102110.55
2024-01-08T19:35:49.013Z,102109.21
2024-01-08T19:40:51.907Z,102113.73
2024-01-08T19:45:54.964Z,102113.77
2024-01-08T19:50:57.780Z,102115.59
2024-01-08T19:56:00.604Z,102119.22
2024-01-08T20:01:04.466Z,102126.30
2024-01-08T20:06:09.162Z,102126.75
2024-01-08T20:11:15.854Z,102125.13
2024-01-08T20:16:19.833Z,102127.58
2024-01-08T20:21:24.274Z,102121.52
2024-01-08T20:26:27.130Z,102115.04
2024-01-08T20:31:29.804Z,102116.75
2024-01-08T20:36:46.339Z,102115.47
2024-01-08T20:41:50.518Z,102116.70
2024-01-08T20:46:54.146Z,102113.71
2024-01-08T20:51:56.953Z,102103.92
2024-01-08T20:57:02.690Z,102093.50
2024-01-08T21:02:07.156Z,102108.73
2024-01-08T21:07:09.964Z,102107.58
2024-01-08T21:12:12.825Z,102112.92
2024-01-08T21:17:15.837Z,102118.25
2024-01-08T21:22:18.846Z,102117.52
2024-01-08T21:27:21.568Z,102128.61
2024-01-08T21:32:24.812Z,102131.73
2024-01-08T21:37:32.880Z,102138.13
2024-01-08T21:42:36.641Z,102131.70
2024-01-08T21:47:39.412Z,102135.23
2024-01-08T21:52:42.657Z,102138.23
2024-01-08T21:57:45.549Z,102140.52
2024-01-08T22:02:48.696Z,102141.46
2024-01-08T22:07:51.866Z,102149.92
2024-01-08T22:12:56.828Z,102155.75
2024-01-08T22:17:59.874Z,102153.23
2024-01-08T22:23:03.483Z,102148.65
2024-01-08T22:28:09.588Z,102138.28
2024-01-08T22:33:12.543Z,102141.21
2024-01-08T22:38:15.456Z,102141.30
2024-01-08T22:43:18.227Z,102142.36
2024-01-08T22:48:20.936Z,102142.83
2024-01-08T22:53:23.975Z,102145.29
2024-01-08T22:58:26.609Z,102145.34
2024-01-08T23:03:29.462Z,102142.24
2024-01-08T23:08:32.690Z,102146.34
2024-01-08T23:13:35.370Z,102146.56
2024-01-08T23:18:38.191Z,102149.00
2024-01-08T23:23:41.197Z,102143.23
2024-01-08T23:28:44.162Z,102144.85
2024-01-08T23:33:47.148Z,102149.98
2024-01-08T23:38:50.016Z,102147.39
2024-01-08T23:43:52.759Z,102149.38
2024-01-08T23:48:55.543Z,102140.48
2024-01-08T23:53:58.294Z,102135.20
2024-01-08T23:59:01.090Z,102133.93
